sensor_id;sensor_type;location;lat;lon;timestamp;temperature;humidity
15217;DHT22;7711;46.634;14.318;2022-07-15T00:02:04;19.00;99.90
15217;DHT22;7711;46.634;14.318;2022-07-15T00:04:35;19.00;99.90
15217;DHT22;7711;46.634;14.318;2022-07-15T00:07:03;19.00;99.90
15217;DHT22;7711;46.634;14.318;2022-07-15T00:09:30;18.90;99.90
15217;DHT22;7711;46.634;14.318;2022-07-15T00:12:17;18.90;99.90
15217;DHT22;7711;46.634;14.318;2022-07-15T00:14:45;18.90;99.90
15217;DHT22;7711;46.634;14.318;2022-07-15T00:17:13;18.80;99.90
15217;DHT22;7711;46.634;14.318;2022-07-15T00:19:45;18.70;99.90
15217;DHT22;7711;46.634;14.318;2022-07-15T00:22:14;18.50;99.90
15217;DHT22;7711;46.634;14.318;2022-07-15T00:24:41;18.60;99.90
15217;DHT22;7711;46.634;14.318;2022-07-15T00:27:08;18.60;99.90
15217;DHT22;7711;46.634;14.318;2022-07-15T00:29:37;18.70;99.90
15217;DHT22;7711;46.634;14.318;2022-07-15T00:32:05;18.60;99.90
15217;DHT22;7711;46.634;14.318;2022-07-15T00:34:32;18.50;99.90
15217;DHT22;7711;46.634;14.318;2022-07-15T00:36:59;18.40;99.90
15217;DHT22;7711;46.634;14.318;2022-07-15T00:39:27;18.60;99.90
15217;DHT22;7711;46.634;14.318;2022-07-15T00:41:57;18.50;99.90
15217;DHT22;7711;46.634;14.318;2022-07-15T00:44:24;18.60;99.90
15217;DHT22;7711;46.634;14.318;2022-07-15T00:46:56;18.60;99.90
15217;DHT22;7711;46.634;14.318;2022-07-15T00:49:27;18.60;99.90
15217;DHT22;7711;46.634;14.318;2022-07-15T00:51:55;18.50;99.90
15217;DHT22;7711;46.634;14.318;2022-07-15T00:54:26;18.50;99.90
15217;DHT22;7711;46.634;14.318;2022-07-15T00:56:55;18.60;99.90
15217;DHT22;7711;46.634;14.318;2022-07-15T00:59:29;18.50;99.90
15217;DHT22;7711;46.634;14.318;2022-07-15T01:01:59;18.60;99.90
15217;DHT22;7711;46.634;14.318;2022-07-15T01:04:28;18.50;99.90
15217;DHT22;7711;46.634;14.318;2022-07-15T01:06:56;18.60;99.90
15217;DHT22;7711;46.634;14.318;2022-07-15T01:09:25;18.60;99.90
15217;DHT22;7711;46.634;14.318;2022-07-15T01:11:52;18.60;99.90
15217;DHT22;7711;46.634;14.318;2022-07-15T01:14:19;18.60;99.90
15217;DHT22;7711;46.634;14.318;2022-07-15T01:16:48;18.60;99.90
15217;DHT22;7711;46.634;14.318;2022-07-15T01:19:17;18.50;99.90
15217;DHT22;7711;46.634;14.318;2022-07-15T01:21:45;18.60;99.90
15217;DHT22;7711;46.634;14.318;2022-07-15T01:24:14;18.60;99.90
15217;DHT22;7711;46.634;14.318;2022-07-15T01:26:41;18.60;99.90
15217;DHT22;7711;46.634;14.318;2022-07-15T01:29:10;18.50;99.90
15217;DHT22;7711;46.634;14.318;2022-07-15T01:31:37;18.50;99.90
15217;DHT22;7711;46.634;14.318;2022-07-15T01:34:07;18.50;99.90
15217;DHT22;7711;46.634;14.318;2022-07-15T01:36:36;18.40;99.90
15217;DHT22;7711;46.634;14.318;2022-07-15T01:39:05;18.40;99.90
15217;DHT22;7711;46.634;14.318;2022-07-15T01:41:35;18.40;99.90
15217;DHT22;7711;46.634;14.318;2022-07-15T01:44:03;18.40;99.90
15217;DHT22;7711;46.634;14.318;2022-07-15T01:46:33;18.30;99.90
15217;DHT22;7711;46.634;14.318;2022-07-15T01:49:01;18.30;99.90
15217;DHT22;7711;46.634;14.318;2022-07-15T01:51:46;18.10;99.90
15217;DHT22;7711;46.634;14.318;2022-07-15T01:54:18;18.10;99.90
15217;DHT22;7711;46.634;14.318;2022-07-15T01:56:45;18.00;99.90
15217;DHT22;7711;46.634;14.318;2022-07-15T01:59:13;18.00;99.90
15217;DHT22;7711;46.634;14.318;2022-07-15T02:01:40;17.90;99.90
15217;DHT22;7711;46.634;14.318;2022-07-15T02:04:08;17.90;99.90
15217;DHT22;7711;46.634;14.318;2022-07-15T02:06:37;17.90;99.90
15217;DHT22;7711;46.634;14.318;2022-07-15T02:09:04;17.90;99.90
15217;DHT22;7711;46.634;14.318;2022-07-15T02:11:33;17.80;99.90
15217;DHT22;7711;46.634;14.318;2022-07-15T02:14:00;17.90;99.90
15217;DHT22;7711;46.634;14.318;2022-07-15T02:16:30;17.80;99.90
15217;DHT22;7711;46.634;14.318;2022-07-15T02:18:58;17.70;99.90
15217;DHT22;7711;46.634;14.318;2022-07-15T02:21:26;17.70;99.90
15217;DHT22;7711;46.634;14.318;2022-07-15T02:23:54;17.60;99.90
15217;DHT22;7711;46.634;14.318;2022-07-15T02:26:23;17.60;99.90
15217;DHT22;7711;46.634;14.318;2022-07-15T02:28:55;17.70;99.90
15217;DHT22;7711;46.634;14.318;2022-07-15T02:31:24;17.60;99.90
15217;DHT22;7711;46.634;14.318;2022-07-15T02:33:51;17.60;99.90
15217;DHT22;7711;46.634;14.318;2022-07-15T02:36:21;17.40;99.90
15217;DHT22;7711;46.634;14.318;2022-07-15T02:38:49;17.30;99.90
15217;DHT22;7711;46.634;14.318;2022-07-15T02:41:21;17.30;99.90
15217;DHT22;7711;46.634;14.318;2022-07-15T02:43:51;17.30;99.90
15217;DHT22;7711;46.634;14.318;2022-07-15T02:46:18;17.30;99.90
15217;DHT22;7711;46.634;14.318;2022-07-15T02:48:51;17.40;99.90
15217;DHT22;7711;46.634;14.318;2022-07-15T02:51:18;17.50;99.90
15217;DHT22;7711;46.634;14.318;2022-07-15T02:53:50;17.50;99.90
15217;DHT22;7711;46.634;14.318;2022-07-15T02:56:19;17.40;99.90
15217;DHT22;7711;46.634;14.318;2022-07-15T02:58:46;17.30;99.90
15217;DHT22;7711;46.634;14.318;2022-07-15T03:01:18;17.30;99.90
15217;DHT22;7711;46.634;14.318;2022-07-15T03:03:48;17.40;99.90
15217;DHT22;7711;46.634;14.318;2022-07-15T03:06:15;17.30;99.90
15217;DHT22;7711;46.634;14.318;2022-07-15T03:08:45;17.20;99.90
15217;DHT22;7711;46.634;14.318;2022-07-15T03:11:14;17.20;99.90
15217;DHT22;7711;46.634;14.318;2022-07-15T03:13:43;17.20;99.90
15217;DHT22;7711;46.634;14.318;2022-07-15T03:16:12;17.10;99.90
15217;DHT22;7711;46.634;14.318;2022-07-15T03:18:41;17.10;99.90
15217;DHT22;7711;46.634;14.318;2022-07-15T03:21:08;17.10;99.90
15217;DHT22;7711;46.634;14.318;2022-07-15T03:23:35;17.10;99.90
15217;DHT22;7711;46.634;14.318;2022-07-15T03:26:06;17.10;99.90
15217;DHT22;7711;46.634;14.318;2022-07-15T03:28:33;17.00;99.90
15217;DHT22;7711;46.634;14.318;2022-07-15T03:31:00;17.00;99.90
15217;DHT22;7711;46.634;14.318;2022-07-15T03:33:28;17.00;99.90
15217;DHT22;7711;46.634;14.318;2022-07-15T03:35:58;16.90;99.90
15217;DHT22;7711;46.634;14.318;2022-07-15T03:38:25;16.80;99.90
15217;DHT22;7711;46.634;14.318;2022-07-15T03:40:55;16.80;99.90
15217;DHT22;7711;46.634;14.318;2022-07-15T03:43:24;16.80;99.90
15217;DHT22;7711;46.634;14.318;2022-07-15T03:45:55;16.90;99.90
15217;DHT22;7711;46.634;14.318;2022-07-15T03:48:22;16.80;99.90
15217;DHT22;7711;46.634;14.318;2022-07-15T03:50:53;16.70;99.90
15217;DHT22;7711;46.634;14.318;2022-07-15T03:53:24;16.70;99.90
15217;DHT22;7711;46.634;14.318;2022-07-15T03:55:54;16.60;99.90
15217;DHT22;7711;46.634;14.318;2022-07-15T03:58:24;16.70;99.90
15217;DHT22;7711;46.634;14.318;2022-07-15T04:00:51;16.70;99.90
15217;DHT22;7711;46.634;14.318;2022-07-15T04:03:19;16.70;99.90
15217;DHT22;7711;46.634;14.318;2022-07-15T04:05:46;16.80;99.90
15217;DHT22;7711;46.634;14.318;2022-07-15T04:08:19;16.90;99.90
15217;DHT22;7711;46.634;14.318;2022-07-15T04:10:48;16.90;99.90
15217;DHT22;7711;46.634;14.318;2022-07-15T04:13:17;16.90;99.90
15217;DHT22;7711;46.634;14.318;2022-07-15T04:15:44;16.80;99.90
15217;DHT22;7711;46.634;14.318;2022-07-15T04:18:12;16.90;99.90
15217;DHT22;7711;46.634;14.318;2022-07-15T04:20:40;17.00;99.90
15217;DHT22;7711;46.634;14.318;2022-07-15T04:23:08;17.10;99.90
15217;DHT22;7711;46.634;14.318;2022-07-15T04:25:35;17.10;99.90
15217;DHT22;7711;46.634;14.318;2022-07-15T04:28:08;17.10;99.90
15217;DHT22;7711;46.634;14.318;2022-07-15T04:30:35;17.20;99.90
15217;DHT22;7711;46.634;14.318;2022-07-15T04:33:02;17.30;99.90
15217;DHT22;7711;46.634;14.318;2022-07-15T04:35:29;17.40;99.90
15217;DHT22;7711;46.634;14.318;2022-07-15T04:37:59;17.40;99.90
15217;DHT22;7711;46.634;14.318;2022-07-15T04:40:26;17.40;99.90
15217;DHT22;7711;46.634;14.318;2022-07-15T04:42:53;17.50;99.90
15217;DHT22;7711;46.634;14.318;2022-07-15T04:45:24;17.50;99.90
15217;DHT22;7711;46.634;14.318;2022-07-15T04:47:51;17.60;99.90
15217;DHT22;7711;46.634;14.318;2022-07-15T04:50:19;17.80;99.90
15217;DHT22;7711;46.634;14.318;2022-07-15T04:53:03;17.80;99.90
15217;DHT22;7711;46.634;14.318;2022-07-15T04:55:30;17.90;99.90
15217;DHT22;7711;46.634;14.318;2022-07-15T04:58:02;17.90;99.90
15217;DHT22;7711;46.634;14.318;2022-07-15T05:00:31;17.90;99.90
15217;DHT22;7711;46.634;14.318;2022-07-15T05:02:59;18.10;99.90
15217;DHT22;7711;46.634;14.318;2022-07-15T05:05:26;18.30;99.90
15217;DHT22;7711;46.634;14.318;2022-07-15T05:07:55;18.40;99.90
15217;DHT22;7711;46.634;14.318;2022-07-15T05:10:22;18.50;99.90
15217;DHT22;7711;46.634;14.318;2022-07-15T05:12:52;18.70;99.90
15217;DHT22;7711;46.634;14.318;2022-07-15T05:15:24;18.70;99.90
15217;DHT22;7711;46.634;14.318;2022-07-15T05:17:53;18.70;99.90
15217;DHT22;7711;46.634;14.318;2022-07-15T05:20:20;18.80;99.90
15217;DHT22;7711;46.634;14.318;2022-07-15T05:22:50;18.80;99.90
15217;DHT22;7711;46.634;14.318;2022-07-15T05:25:21;18.70;99.90
15217;DHT22;7711;46.634;14.318;2022-07-15T05:27:48;18.80;99.90
15217;DHT22;7711;46.634;14.318;2022-07-15T05:30:17;18.90;99.90
15217;DHT22;7711;46.634;14.318;2022-07-15T05:32:44;19.00;99.90
15217;DHT22;7711;46.634;14.318;2022-07-15T05:35:14;19.10;99.90
15217;DHT22;7711;46.634;14.318;2022-07-15T05:37:45;19.30;99.90
15217;DHT22;7711;46.634;14.318;2022-07-15T05:40:15;19.50;99.90
15217;DHT22;7711;46.634;14.318;2022-07-15T05:42:42;19.40;99.90
15217;DHT22;7711;46.634;14.318;2022-07-15T05:45:12;19.50;99.90
15217;DHT22;7711;46.634;14.318;2022-07-15T05:47:39;19.70;99.90
15217;DHT22;7711;46.634;14.318;2022-07-15T05:50:16;19.90;99.90
15217;DHT22;7711;46.634;14.318;2022-07-15T05:52:43;20.00;99.90
15217;DHT22;7711;46.634;14.318;2022-07-15T05:55:10;20.10;99.90
15217;DHT22;7711;46.634;14.318;2022-07-15T05:57:38;20.30;99.90
15217;DHT22;7711;46.634;14.318;2022-07-15T06:00:08;20.30;99.90
15217;DHT22;7711;46.634;14.318;2022-07-15T06:02:38;20.50;99.90
15217;DHT22;7711;46.634;14.318;2022-07-15T06:05:09;20.70;99.90
15217;DHT22;7711;46.634;14.318;2022-07-15T06:07:37;20.80;99.90
15217;DHT22;7711;46.634;14.318;2022-07-15T06:10:07;20.80;99.90
15217;DHT22;7711;46.634;14.318;2022-07-15T06:12:36;21.00;99.90
15217;DHT22;7711;46.634;14.318;2022-07-15T06:15:07;21.30;99.90
15217;DHT22;7711;46.634;14.318;2022-07-15T06:17:36;21.60;99.90
15217;DHT22;7711;46.634;14.318;2022-07-15T06:20:05;21.80;99.90
15217;DHT22;7711;46.634;14.318;2022-07-15T06:22:32;22.20;99.90
15217;DHT22;7711;46.634;14.318;2022-07-15T06:25:03;22.50;99.90
15217;DHT22;7711;46.634;14.318;2022-07-15T06:27:32;22.60;99.90
15217;DHT22;7711;46.634;14.318;2022-07-15T06:30:08;22.80;99.90
15217;DHT22;7711;46.634;14.318;2022-07-15T06:32:36;23.20;99.90
15217;DHT22;7711;46.634;14.318;2022-07-15T06:35:03;23.40;99.90
15217;DHT22;7711;46.634;14.318;2022-07-15T06:37:31;23.60;99.90
15217;DHT22;7711;46.634;14.318;2022-07-15T06:40:00;23.60;99.90
15217;DHT22;7711;46.634;14.318;2022-07-15T06:42:31;23.80;99.90
15217;DHT22;7711;46.634;14.318;2022-07-15T06:44:58;24.00;99.90
15217;DHT22;7711;46.634;14.318;2022-07-15T06:47:30;23.70;99.90
15217;DHT22;7711;46.634;14.318;2022-07-15T06:49:57;23.70;99.90
15217;DHT22;7711;46.634;14.318;2022-07-15T06:52:24;23.60;99.90
15217;DHT22;7711;46.634;14.318;2022-07-15T06:54:51;23.70;99.90
15217;DHT22;7711;46.634;14.318;2022-07-15T06:57:19;23.90;99.90
15217;DHT22;7711;46.634;14.318;2022-07-15T06:59:48;23.90;99.90
15217;DHT22;7711;46.634;14.318;2022-07-15T07:02:15;24.20;99.90
15217;DHT22;7711;46.634;14.318;2022-07-15T07:04:43;24.30;99.90
15217;DHT22;7711;46.634;14.318;2022-07-15T07:07:10;24.40;99.90
15217;DHT22;7711;46.634;14.318;2022-07-15T07:09:42;24.40;99.90
15217;DHT22;7711;46.634;14.318;2022-07-15T07:12:11;24.50;99.90
15217;DHT22;7711;46.634;14.318;2022-07-15T07:14:38;24.70;99.90
15217;DHT22;7711;46.634;14.318;2022-07-15T07:17:07;25.10;99.90
15217;DHT22;7711;46.634;14.318;2022-07-15T07:19:36;25.20;99.90
15217;DHT22;7711;46.634;14.318;2022-07-15T07:22:03;25.40;99.90
15217;DHT22;7711;46.634;14.318;2022-07-15T07:24:31;25.60;99.90
15217;DHT22;7711;46.634;14.318;2022-07-15T07:26:58;26.00;99.90
15217;DHT22;7711;46.634;14.318;2022-07-15T07:29:26;26.40;99.90
15217;DHT22;7711;46.634;14.318;2022-07-15T07:31:53;26.70;99.90
15217;DHT22;7711;46.634;14.318;2022-07-15T07:34:25;26.60;99.90
15217;DHT22;7711;46.634;14.318;2022-07-15T07:36:52;26.50;99.90
15217;DHT22;7711;46.634;14.318;2022-07-15T07:39:19;26.50;99.90
15217;DHT22;7711;46.634;14.318;2022-07-15T07:41:48;26.40;99.90
15217;DHT22;7711;46.634;14.318;2022-07-15T07:44:20;26.30;99.90
15217;DHT22;7711;46.634;14.318;2022-07-15T07:46:49;26.20;99.90
15217;DHT22;7711;46.634;14.318;2022-07-15T07:49:17;26.10;99.90
15217;DHT22;7711;46.634;14.318;2022-07-15T07:51:45;26.00;99.90
15217;DHT22;7711;46.634;14.318;2022-07-15T07:54:16;26.40;99.90
15217;DHT22;7711;46.634;14.318;2022-07-15T07:56:46;26.70;99.90
15217;DHT22;7711;46.634;14.318;2022-07-15T07:59:13;26.90;99.90
15217;DHT22;7711;46.634;14.318;2022-07-15T08:01:40;27.00;99.90
15217;DHT22;7711;46.634;14.318;2022-07-15T08:04:10;27.10;99.90
15217;DHT22;7711;46.634;14.318;2022-07-15T08:06:41;27.20;99.90
15217;DHT22;7711;46.634;14.318;2022-07-15T08:09:09;27.00;99.90
15217;DHT22;7711;46.634;14.318;2022-07-15T08:11:36;27.20;99.90
15217;DHT22;7711;46.634;14.318;2022-07-15T08:14:03;27.50;99.90
15217;DHT22;7711;46.634;14.318;2022-07-15T08:16:37;27.60;99.90
15217;DHT22;7711;46.634;14.318;2022-07-15T08:19:10;27.80;99.90
15217;DHT22;7711;46.634;14.318;2022-07-15T08:21:40;27.60;99.90
15217;DHT22;7711;46.634;14.318;2022-07-15T08:24:09;27.40;99.90
15217;DHT22;7711;46.634;14.318;2022-07-15T08:26:38;27.30;99.90
15217;DHT22;7711;46.634;14.318;2022-07-15T08:29:07;27.40;99.90
15217;DHT22;7711;46.634;14.318;2022-07-15T08:31:36;27.50;99.90
15217;DHT22;7711;46.634;14.318;2022-07-15T08:34:06;27.60;99.90
15217;DHT22;7711;46.634;14.318;2022-07-15T08:36:34;27.40;99.90
15217;DHT22;7711;46.634;14.318;2022-07-15T08:39:01;27.70;99.90
15217;DHT22;7711;46.634;14.318;2022-07-15T08:41:34;27.90;99.90
15217;DHT22;7711;46.634;14.318;2022-07-15T08:44:04;27.80;99.90
15217;DHT22;7711;46.634;14.318;2022-07-15T08:46:33;27.70;99.90
15217;DHT22;7711;46.634;14.318;2022-07-15T08:49:04;27.90;99.90
15217;DHT22;7711;46.634;14.318;2022-07-15T08:51:35;28.00;99.90
15217;DHT22;7711;46.634;14.318;2022-07-15T08:54:06;27.90;99.90
15217;DHT22;7711;46.634;14.318;2022-07-15T08:56:35;27.60;99.70
15217;DHT22;7711;46.634;14.318;2022-07-15T08:59:04;27.40;99.10
15217;DHT22;7711;46.634;14.318;2022-07-15T09:01:32;27.50;98.70
15217;DHT22;7711;46.634;14.318;2022-07-15T09:03:59;27.50;99.40
15217;DHT22;7711;46.634;14.318;2022-07-15T09:06:34;27.80;98.70
15217;DHT22;7711;46.634;14.318;2022-07-15T09:09:27;28.10;98.20
15217;DHT22;7711;46.634;14.318;2022-07-15T09:12:05;28.50;98.70
15217;DHT22;7711;46.634;14.318;2022-07-15T09:14:34;28.60;99.10
15217;DHT22;7711;46.634;14.318;2022-07-15T09:17:22;29.00;98.60
15217;DHT22;7711;46.634;14.318;2022-07-15T09:19:57;28.90;96.20
15217;DHT22;7711;46.634;14.318;2022-07-15T09:22:24;29.00;97.00
15217;DHT22;7711;46.634;14.318;2022-07-15T09:25:05;28.80;96.70
15217;DHT22;7711;46.634;14.318;2022-07-15T09:27:35;28.40;96.30
15217;DHT22;7711;46.634;14.318;2022-07-15T09:30:14;28.20;96.50
15217;DHT22;7711;46.634;14.318;2022-07-15T09:33:02;28.30;96.80
15217;DHT22;7711;46.634;14.318;2022-07-15T09:35:43;28.30;95.90
15217;DHT22;7711;46.634;14.318;2022-07-15T09:38:33;28.40;96.10
15217;DHT22;7711;46.634;14.318;2022-07-15T09:41:02;28.40;96.60
15217;DHT22;7711;46.634;14.318;2022-07-15T09:43:33;28.80;96.00
15217;DHT22;7711;46.634;14.318;2022-07-15T09:46:10;28.80;96.00
15217;DHT22;7711;46.634;14.318;2022-07-15T09:48:39;28.60;95.90
15217;DHT22;7711;46.634;14.318;2022-07-15T09:51:07;28.70;95.50
15217;DHT22;7711;46.634;14.318;2022-07-15T09:53:35;28.60;95.40
15217;DHT22;7711;46.634;14.318;2022-07-15T09:56:05;28.60;94.90
15217;DHT22;7711;46.634;14.318;2022-07-15T09:58:37;28.60;95.90
15217;DHT22;7711;46.634;14.318;2022-07-15T10:01:05;28.60;95.60
15217;DHT22;7711;46.634;14.318;2022-07-15T10:03:36;28.80;95.40
15217;DHT22;7711;46.634;14.318;2022-07-15T10:06:04;28.40;94.60
15217;DHT22;7711;46.634;14.318;2022-07-15T10:08:36;28.70;94.90
15217;DHT22;7711;46.634;14.318;2022-07-15T10:11:09;29.20;95.20
15217;DHT22;7711;46.634;14.318;2022-07-15T10:14:03;29.60;94.30
15217;DHT22;7711;46.634;14.318;2022-07-15T10:16:51;29.90;93.60
15217;DHT22;7711;46.634;14.318;2022-07-15T10:19:35;29.60;92.70
15217;DHT22;7711;46.634;14.318;2022-07-15T10:22:22;29.50;93.80
15217;DHT22;7711;46.634;14.318;2022-07-15T10:25:08;30.20;93.60
15217;DHT22;7711;46.634;14.318;2022-07-15T10:27:46;30.20;93.20
15217;DHT22;7711;46.634;14.318;2022-07-15T10:30:21;30.10;93.20
15217;DHT22;7711;46.634;14.318;2022-07-15T10:33:10;30.40;92.50
15217;DHT22;7711;46.634;14.318;2022-07-15T10:35:44;30.40;92.60
15217;DHT22;7711;46.634;14.318;2022-07-15T10:38:36;30.20;91.60
15217;DHT22;7711;46.634;14.318;2022-07-15T10:41:05;30.20;93.10
15217;DHT22;7711;46.634;14.318;2022-07-15T10:43:47;30.20;92.50
15217;DHT22;7711;46.634;14.318;2022-07-15T10:46:28;30.30;92.00
15217;DHT22;7711;46.634;14.318;2022-07-15T10:49:29;30.70;91.80
15217;DHT22;7711;46.634;14.318;2022-07-15T10:52:12;31.40;90.40
15217;DHT22;7711;46.634;14.318;2022-07-15T10:54:46;31.60;90.00
15217;DHT22;7711;46.634;14.318;2022-07-15T10:57:16;31.90;89.30
15217;DHT22;7711;46.634;14.318;2022-07-15T10:59:53;31.70;89.70
15217;DHT22;7711;46.634;14.318;2022-07-15T11:02:24;31.30;89.40
15217;DHT22;7711;46.634;14.318;2022-07-15T11:04:52;30.40;90.30
15217;DHT22;7711;46.634;14.318;2022-07-15T11:07:41;30.30;90.30
15217;DHT22;7711;46.634;14.318;2022-07-15T11:10:14;30.40;90.80
15217;DHT22;7711;46.634;14.318;2022-07-15T11:13:11;30.50;90.70
15217;DHT22;7711;46.634;14.318;2022-07-15T11:15:39;30.50;90.60
15217;DHT22;7711;46.634;14.318;2022-07-15T11:18:07;30.40;89.80
15217;DHT22;7711;46.634;14.318;2022-07-15T11:20:36;30.90;90.40
15217;DHT22;7711;46.634;14.318;2022-07-15T11:23:05;31.30;90.20
15217;DHT22;7711;46.634;14.318;2022-07-15T11:25:35;32.00;90.20
15217;DHT22;7711;46.634;14.318;2022-07-15T11:28:07;32.20;88.40
15217;DHT22;7711;46.634;14.318;2022-07-15T11:30:38;31.90;86.90
15217;DHT22;7711;46.634;14.318;2022-07-15T11:33:10;31.60;87.20
15217;DHT22;7711;46.634;14.318;2022-07-15T11:35:45;31.50;86.50
15217;DHT22;7711;46.634;14.318;2022-07-15T11:38:13;31.50;87.30
15217;DHT22;7711;46.634;14.318;2022-07-15T11:40:44;31.40;88.40
15217;DHT22;7711;46.634;14.318;2022-07-15T11:43:28;31.80;87.50
15217;DHT22;7711;46.634;14.318;2022-07-15T11:46:13;31.60;87.00
15217;DHT22;7711;46.634;14.318;2022-07-15T11:48:42;31.10;86.90
15217;DHT22;7711;46.634;14.318;2022-07-15T11:51:11;31.90;88.40
15217;DHT22;7711;46.634;14.318;2022-07-15T11:53:40;32.60;86.80
15217;DHT22;7711;46.634;14.318;2022-07-15T11:56:09;33.00;85.80
15217;DHT22;7711;46.634;14.318;2022-07-15T11:58:38;33.40;85.10
15217;DHT22;7711;46.634;14.318;2022-07-15T12:01:07;33.90;83.30
15217;DHT22;7711;46.634;14.318;2022-07-15T12:03:39;33.30;83.10
15217;DHT22;7711;46.634;14.318;2022-07-15T12:06:19;33.40;82.00
15217;DHT22;7711;46.634;14.318;2022-07-15T12:08:51;31.80;81.90
15217;DHT22;7711;46.634;14.318;2022-07-15T12:11:22;31.90;83.70
15217;DHT22;7711;46.634;14.318;2022-07-15T12:13:53;31.80;82.90
15217;DHT22;7711;46.634;14.318;2022-07-15T12:16:24;32.20;81.60
15217;DHT22;7711;46.634;14.318;2022-07-15T12:18:56;32.10;81.20
15217;DHT22;7711;46.634;14.318;2022-07-15T12:21:25;30.90;82.00
15217;DHT22;7711;46.634;14.318;2022-07-15T12:24:01;30.60;81.90
15217;DHT22;7711;46.634;14.318;2022-07-15T12:26:30;30.50;82.50
15217;DHT22;7711;46.634;14.318;2022-07-15T12:29:02;30.60;83.70
15217;DHT22;7711;46.634;14.318;2022-07-15T12:31:34;30.50;84.40
15217;DHT22;7711;46.634;14.318;2022-07-15T12:34:03;30.50;86.20
15217;DHT22;7711;46.634;14.318;2022-07-15T12:36:35;30.50;84.50
15217;DHT22;7711;46.634;14.318;2022-07-15T12:39:14;30.50;83.70
15217;DHT22;7711;46.634;14.318;2022-07-15T12:41:45;30.40;84.50
15217;DHT22;7711;46.634;14.318;2022-07-15T12:44:27;30.40;83.70
15217;DHT22;7711;46.634;14.318;2022-07-15T12:46:58;30.00;81.40
15217;DHT22;7711;46.634;14.318;2022-07-15T12:49:46;29.60;83.30
15217;DHT22;7711;46.634;14.318;2022-07-15T12:52:21;29.10;86.10
15217;DHT22;7711;46.634;14.318;2022-07-15T12:54:52;29.00;87.00
15217;DHT22;7711;46.634;14.318;2022-07-15T12:57:29;28.40;88.00
15217;DHT22;7711;46.634;14.318;2022-07-15T13:00:00;28.00;90.20
15217;DHT22;7711;46.634;14.318;2022-07-15T13:02:28;27.30;91.00
15217;DHT22;7711;46.634;14.318;2022-07-15T13:04:55;27.10;92.20
15217;DHT22;7711;46.634;14.318;2022-07-15T13:07:24;27.00;92.90
15217;DHT22;7711;46.634;14.318;2022-07-15T13:09:54;26.90;93.20
15217;DHT22;7711;46.634;14.318;2022-07-15T13:12:22;26.90;93.30
15217;DHT22;7711;46.634;14.318;2022-07-15T13:14:51;26.80;93.60
15217;DHT22;7711;46.634;14.318;2022-07-15T13:17:18;27.00;93.60
15217;DHT22;7711;46.634;14.318;2022-07-15T13:19:45;26.90;93.80
15217;DHT22;7711;46.634;14.318;2022-07-15T13:22:14;26.70;93.80
15217;DHT22;7711;46.634;14.318;2022-07-15T13:24:42;26.70;94.20
15217;DHT22;7711;46.634;14.318;2022-07-15T13:27:10;26.60;94.30
15217;DHT22;7711;46.634;14.318;2022-07-15T13:29:39;26.60;94.50
15217;DHT22;7711;46.634;14.318;2022-07-15T13:32:08;26.50;95.30
15217;DHT22;7711;46.634;14.318;2022-07-15T13:34:36;26.20;96.10
15217;DHT22;7711;46.634;14.318;2022-07-15T13:37:03;26.10;96.20
15217;DHT22;7711;46.634;14.318;2022-07-15T13:39:30;26.30;96.30
15217;DHT22;7711;46.634;14.318;2022-07-15T13:42:01;26.10;95.00
15217;DHT22;7711;46.634;14.318;2022-07-15T13:44:28;26.40;95.30
15217;DHT22;7711;46.634;14.318;2022-07-15T13:46:55;27.00;95.40
15217;DHT22;7711;46.634;14.318;2022-07-15T13:49:23;27.50;95.30
15217;DHT22;7711;46.634;14.318;2022-07-15T13:52:10;27.60;95.70
15217;DHT22;7711;46.634;14.318;2022-07-15T13:54:39;27.60;95.90
15217;DHT22;7711;46.634;14.318;2022-07-15T13:57:07;27.40;96.00
15217;DHT22;7711;46.634;14.318;2022-07-15T13:59:36;26.80;97.30
15217;DHT22;7711;46.634;14.318;2022-07-15T14:02:04;26.30;98.10
15217;DHT22;7711;46.634;14.318;2022-07-15T14:04:31;25.90;99.70
15217;DHT22;7711;46.634;14.318;2022-07-15T14:06:58;25.50;99.90
15217;DHT22;7711;46.634;14.318;2022-07-15T14:09:30;25.30;99.90
15217;DHT22;7711;46.634;14.318;2022-07-15T14:11:59;25.10;99.90
15217;DHT22;7711;46.634;14.318;2022-07-15T14:14:28;25.00;99.90
15217;DHT22;7711;46.634;14.318;2022-07-15T14:16:57;24.80;99.90
15217;DHT22;7711;46.634;14.318;2022-07-15T14:19:27;24.90;99.90
15217;DHT22;7711;46.634;14.318;2022-07-15T14:21:54;24.90;99.90
15217;DHT22;7711;46.634;14.318;2022-07-15T14:24:24;24.90;99.90
15217;DHT22;7711;46.634;14.318;2022-07-15T14:26:52;24.70;99.90
15217;DHT22;7711;46.634;14.318;2022-07-15T14:29:20;24.70;99.90
15217;DHT22;7711;46.634;14.318;2022-07-15T14:31:49;24.70;99.90
15217;DHT22;7711;46.634;14.318;2022-07-15T14:34:18;24.70;99.90
15217;DHT22;7711;46.634;14.318;2022-07-15T14:36:45;24.80;99.90
15217;DHT22;7711;46.634;14.318;2022-07-15T14:39:15;24.70;99.90
15217;DHT22;7711;46.634;14.318;2022-07-15T14:41:43;24.50;99.90
15217;DHT22;7711;46.634;14.318;2022-07-15T14:44:14;24.30;99.90
15217;DHT22;7711;46.634;14.318;2022-07-15T14:46:42;24.20;99.90
15217;DHT22;7711;46.634;14.318;2022-07-15T14:49:10;24.20;99.90
15217;DHT22;7711;46.634;14.318;2022-07-15T14:51:39;24.00;99.90
15217;DHT22;7711;46.634;14.318;2022-07-15T14:54:07;23.90;99.90
15217;DHT22;7711;46.634;14.318;2022-07-15T14:56:37;23.80;99.90
15217;DHT22;7711;46.634;14.318;2022-07-15T14:59:06;23.70;99.90
15217;DHT22;7711;46.634;14.318;2022-07-15T15:01:33;23.60;99.90
15217;DHT22;7711;46.634;14.318;2022-07-15T15:04:00;23.60;99.90
15217;DHT22;7711;46.634;14.318;2022-07-15T15:06:29;23.60;99.90
15217;DHT22;7711;46.634;14.318;2022-07-15T15:08:56;23.60;99.90
15217;DHT22;7711;46.634;14.318;2022-07-15T15:11:29;23.60;99.90
15217;DHT22;7711;46.634;14.318;2022-07-15T15:13:57;23.50;99.90
15217;DHT22;7711;46.634;14.318;2022-07-15T15:16:25;23.40;99.90
15217;DHT22;7711;46.634;14.318;2022-07-15T15:18:52;23.40;99.90
15217;DHT22;7711;46.634;14.318;2022-07-15T15:21:19;23.30;99.90
15217;DHT22;7711;46.634;14.318;2022-07-15T15:23:48;23.20;99.90
15217;DHT22;7711;46.634;14.318;2022-07-15T15:26:15;23.20;99.90
15217;DHT22;7711;46.634;14.318;2022-07-15T15:28:53;23.10;99.90
15217;DHT22;7711;46.634;14.318;2022-07-15T15:31:21;23.10;99.90
15217;DHT22;7711;46.634;14.318;2022-07-15T15:33:49;23.10;99.90
15217;DHT22;7711;46.634;14.318;2022-07-15T15:36:20;23.00;99.90
15217;DHT22;7711;46.634;14.318;2022-07-15T15:38:51;23.00;99.90
15217;DHT22;7711;46.634;14.318;2022-07-15T15:41:19;22.90;99.90
15217;DHT22;7711;46.634;14.318;2022-07-15T15:43:48;23.00;99.90
15217;DHT22;7711;46.634;14.318;2022-07-15T15:46:16;23.00;99.90
15217;DHT22;7711;46.634;14.318;2022-07-15T15:48:44;23.30;99.90
15217;DHT22;7711;46.634;14.318;2022-07-15T15:51:12;23.50;99.90